sensor_id;sensor_type;location;lat;lon;timestamp;pressure;altitude;pressure_sealevel;temperature;humidity
10658;BME280;5377;43.276;26.930;2023-03-26T00:01:05;98183.59;;;15.21;90.81
10658;BME280;5377;43.276;26.930;2023-03-26T00:03:35;98209.06;;;15.31;91.50
10658;BME280;5377;43.276;26.930;2023-03-26T00:06:03;98210.25;;;15.18;92.55
10658;BME280;5377;43.276;26.930;2023-03-26T00:08:32;98213.47;;;15.15;93.04
10658;BME280;5377;43.276;26.930;2023-03-26T00:10:58;98221.25;;;15.11;93.90
10658;BME280;5377;43.276;26.930;2023-03-26T00:13:26;98220.03;;;14.97;94.60
10658;BME280;5377;43.276;26.930;2023-03-26T00:15:52;98220.34;;;15.01;96.03
10658;BME280;5377;43.276;26.930;2023-03-26T00:18:19;98223.25;;;14.94;96.69
10658;BME280;5377;43.276;26.930;2023-03-26T00:20:50;98217.41;;;14.80;97.41
10658;BME280;5377;43.276;26.930;2023-03-26T00:23:17;98222.50;;;14.77;97.89
10658;BME280;5377;43.276;26.930;2023-03-26T00:25:44;98220.44;;;14.62;98.12
10658;BME280;5377;43.276;26.930;2023-03-26T00:28:15;98205.03;;;14.57;98.69
10658;BME280;5377;43.276;26.930;2023-03-26T00:30:45;98207.88;;;14.51;100.00
10658;BME280;5377;43.276;26.930;2023-03-26T00:33:12;98209.69;;;14.45;100.00
10658;BME280;5377;43.276;26.930;2023-03-26T00:35:52;98201.22;;;14.36;100.00
10658;BME280;5377;43.276;26.930;2023-03-26T00:38:19;98209.16;;;14.26;100.00
10658;BME280;5377;43.276;26.930;2023-03-26T00:40:46;98193.91;;;14.15;100.00
10658;BME280;5377;43.276;26.930;2023-03-26T00:43:15;98214.50;;;14.04;100.00
10658;BME280;5377;43.276;26.930;2023-03-26T00:45:45;98215.81;;;14.02;100.00
10658;BME280;5377;43.276;26.930;2023-03-26T00:48:12;98208.00;;;14.00;100.00
10658;BME280;5377;43.276;26.930;2023-03-26T00:50:39;98206.03;;;13.96;100.00
10658;BME280;5377;43.276;26.930;2023-03-26T00:53:09;98211.25;;;13.86;100.00
10658;BME280;5377;43.276;26.930;2023-03-26T00:55:38;98195.28;;;13.79;100.00
10658;BME280;5377;43.276;26.930;2023-03-26T00:58:05;98192.50;;;13.74;100.00
10658;BME280;5377;43.276;26.930;2023-03-26T01:00:41;98197.91;;;13.74;100.00
10658;BME280;5377;43.276;26.930;2023-03-26T01:03:11;98199.22;;;13.71;100.00
10658;BME280;5377;43.276;26.930;2023-03-26T01:05:47;98193.19;;;13.64;100.00
10658;BME280;5377;43.276;26.930;2023-03-26T01:08:29;98192.84;;;13.61;100.00
10658;BME280;5377;43.276;26.930;2023-03-26T01:11:00;98202.72;;;13.55;100.00
10658;BME280;5377;43.276;26.930;2023-03-26T01:13:34;98195.72;;;13.54;100.00
10658;BME280;5377;43.276;26.930;2023-03-26T01:16:05;98186.22;;;13.52;100.00
10658;BME280;5377;43.276;26.930;2023-03-26T01:18:36;98200.66;;;13.46;100.00
10658;BME280;5377;43.276;26.930;2023-03-26T01:21:07;98196.34;;;13.45;100.00
10658;BME280;5377;43.276;26.930;2023-03-26T01:23:43;98175.06;;;13.26;100.00
10658;BME280;5377;43.276;26.930;2023-03-26T01:26:28;98201.31;;;13.36;100.00
10658;BME280;5377;43.276;26.930;2023-03-26T01:29:01;98200.19;;;13.32;100.00
10658;BME280;5377;43.276;26.930;2023-03-26T01:31:32;98198.31;;;13.32;100.00
10658;BME280;5377;43.276;26.930;2023-03-26T01:34:08;98192.84;;;13.27;100.00
10658;BME280;5377;43.276;26.930;2023-03-26T01:36:41;98198.38;;;13.21;100.00
10658;BME280;5377;43.276;26.930;2023-03-26T01:39:15;98207.84;;;13.23;100.00
10658;BME280;5377;43.276;26.930;2023-03-26T01:41:49;98203.75;;;13.21;100.00
10658;BME280;5377;43.276;26.930;2023-03-26T01:44:20;98194.72;;;13.15;100.00
10658;BME280;5377;43.276;26.930;2023-03-26T01:46:50;98201.41;;;13.12;100.00
10658;BME280;5377;43.276;26.930;2023-03-26T01:49:18;98197.09;;;13.11;100.00
10658;BME280;5377;43.276;26.930;2023-03-26T01:51:45;98205.16;;;13.11;100.00
10658;BME280;5377;43.276;26.930;2023-03-26T01:54:14;98201.88;;;13.09;100.00
10658;BME280;5377;43.276;26.930;2023-03-26T01:56:51;98206.13;;;13.05;100.00
10658;BME280;5377;43.276;26.930;2023-03-26T01:59:35;98185.00;;;12.97;100.00
10658;BME280;5377;43.276;26.930;2023-03-26T02:02:11;98191.94;;;12.93;100.00
10658;BME280;5377;43.276;26.930;2023-03-26T02:04:42;98202.91;;;12.92;100.00
10658;BME280;5377;43.276;26.930;2023-03-26T02:07:16;98209.34;;;12.91;100.00
10658;BME280;5377;43.276;26.930;2023-03-26T02:09:49;98209.84;;;12.88;100.00
10658;BME280;5377;43.276;26.930;2023-03-26T02:12:18;98216.03;;;12.88;100.00
10658;BME280;5377;43.276;26.930;2023-03-26T02:14:47;98224.31;;;12.87;100.00
10658;BME280;5377;43.276;26.930;2023-03-26T02:17:14;98221.19;;;12.78;100.00
10658;BME280;5377;43.276;26.930;2023-03-26T02:19:43;98222.00;;;12.78;100.00
10658;BME280;5377;43.276;26.930;2023-03-26T02:22:12;98213.13;;;12.78;100.00
10658;BME280;5377;43.276;26.930;2023-03-26T02:24:40;98212.06;;;12.79;100.00
10658;BME280;5377;43.276;26.930;2023-03-26T02:27:07;98210.00;;;12.69;100.00
10658;BME280;5377;43.276;26.930;2023-03-26T02:29:39;98214.00;;;12.67;100.00
10658;BME280;5377;43.276;26.930;2023-03-26T02:32:08;98216.44;;;12.68;100.00
10658;BME280;5377;43.276;26.930;2023-03-26T02:34:37;98237.59;;;12.65;100.00
10658;BME280;5377;43.276;26.930;2023-03-26T02:37:04;98230.47;;;12.59;100.00
10658;BME280;5377;43.276;26.930;2023-03-26T02:39:31;98242.88;;;12.60;100.00
10658;BME280;5377;43.276;26.930;2023-03-26T02:41:58;98252.44;;;12.56;100.00
10658;BME280;5377;43.276;26.930;2023-03-26T02:44:25;98257.25;;;12.54;100.00
10658;BME280;5377;43.276;26.930;2023-03-26T02:46:53;98250.25;;;12.53;100.00
10658;BME280;5377;43.276;26.930;2023-03-26T02:49:20;98261.47;;;12.49;100.00
10658;BME280;5377;43.276;26.930;2023-03-26T02:51:47;98263.78;;;12.46;100.00
10658;BME280;5377;43.276;26.930;2023-03-26T02:54:13;98256.66;;;12.40;100.00
10658;BME280;5377;43.276;26.930;2023-03-26T02:56:41;98282.00;;;12.32;100.00
10658;BME280;5377;43.276;26.930;2023-03-26T02:59:08;98284.13;;;12.30;100.00
10658;BME280;5377;43.276;26.930;2023-03-26T03:01:35;98285.88;;;12.25;100.00
10658;BME280;5377;43.276;26.930;2023-03-26T03:04:08;98289.34;;;12.13;100.00
10658;BME280;5377;43.276;26.930;2023-03-26T03:06:36;98301.03;;;12.07;100.00
10658;BME280;5377;43.276;26.930;2023-03-26T03:09:05;98300.44;;;12.05;100.00
10658;BME280;5377;43.276;26.930;2023-03-26T03:11:33;98281.69;;;11.75;100.00
10658;BME280;5377;43.276;26.930;2023-03-26T03:13:59;98326.00;;;11.96;100.00
10658;BME280;5377;43.276;26.930;2023-03-26T03:16:26;98326.34;;;12.00;100.00
10658;BME280;5377;43.276;26.930;2023-03-26T03:18:53;98322.50;;;11.96;100.00
10658;BME280;5377;43.276;26.930;2023-03-26T03:21:23;98319.00;;;11.95;100.00
10658;BME280;5377;43.276;26.930;2023-03-26T03:23:52;98311.63;;;11.91;100.00
10658;BME280;5377;43.276;26.930;2023-03-26T03:26:21;98332.53;;;11.89;100.00
10658;BME280;5377;43.276;26.930;2023-03-26T03:28:52;98334.03;;;11.84;100.00
10658;BME280;5377;43.276;26.930;2023-03-26T03:31:20;98313.03;;;11.81;100.00
10658;BME280;5377;43.276;26.930;2023-03-26T03:33:46;98326.09;;;11.90;100.00
10658;BME280;5377;43.276;26.930;2023-03-26T03:36:15;98327.63;;;11.85;100.00
10658;BME280;5377;43.276;26.930;2023-03-26T03:38:44;98331.94;;;11.86;100.00
10658;BME280;5377;43.276;26.930;2023-03-26T03:41:11;98318.75;;;11.85;100.00
10658;BME280;5377;43.276;26.930;2023-03-26T03:43:38;98300.81;;;11.67;100.00
10658;BME280;5377;43.276;26.930;2023-03-26T03:46:05;98303.34;;;11.80;100.00
10658;BME280;5377;43.276;26.930;2023-03-26T03:48:32;98307.28;;;11.78;100.00
10658;BME280;5377;43.276;26.930;2023-03-26T03:51:02;98317.03;;;11.72;100.00
10658;BME280;5377;43.276;26.930;2023-03-26T03:53:30;98315.19;;;11.73;100.00
10658;BME280;5377;43.276;26.930;2023-03-26T03:56:03;98326.94;;;11.72;100.00
10658;BME280;5377;43.276;26.930;2023-03-26T03:58:34;98344.31;;;11.69;100.00
10658;BME280;5377;43.276;26.930;2023-03-26T04:01:01;98344.19;;;11.64;100.00
10658;BME280;5377;43.276;26.930;2023-03-26T04:03:29;98360.28;;;11.64;100.00
10658;BME280;5377;43.276;26.930;2023-03-26T04:05:56;98364.94;;;11.57;100.00
10658;BME280;5377;43.276;26.930;2023-03-26T04:08:23;98365.41;;;11.54;100.00
10658;BME280;5377;43.276;26.930;2023-03-26T04:10:50;98364.34;;;11.55;100.00
10658;BME280;5377;43.276;26.930;2023-03-26T04:13:18;98352.50;;;11.44;100.00
10658;BME280;5377;43.276;26.930;2023-03-26T04:15:45;98364.28;;;11.43;100.00
10658;BME280;5377;43.276;26.930;2023-03-26T04:18:12;98351.69;;;11.44;100.00
10658;BME280;5377;43.276;26.930;2023-03-26T04:20:43;98362.00;;;11.47;100.00
10658;BME280;5377;43.276;26.930;2023-03-26T04:23:11;98362.22;;;11.45;100.00
10658;BME280;5377;43.276;26.930;2023-03-26T04:25:39;98357.16;;;11.37;100.00
10658;BME280;5377;43.276;26.930;2023-03-26T04:28:07;98354.75;;;11.47;100.00
10658;BME280;5377;43.276;26.930;2023-03-26T04:30:37;98370.41;;;11.50;100.00
10658;BME280;5377;43.276;26.930;2023-03-26T04:33:09;98371.22;;;11.51;100.00
10658;BME280;5377;43.276;26.930;2023-03-26T04:35:40;98358.03;;;11.49;100.00
10658;BME280;5377;43.276;26.930;2023-03-26T04:38:09;98384.03;;;11.49;100.00
10658;BME280;5377;43.276;26.930;2023-03-26T04:40:37;98371.66;;;11.48;100.00
10658;BME280;5377;43.276;26.930;2023-03-26T04:43:04;98391.84;;;11.50;100.00
10658;BME280;5377;43.276;26.930;2023-03-26T04:45:30;98384.03;;;11.49;100.00
10658;BME280;5377;43.276;26.930;2023-03-26T04:47:59;98391.50;;;11.47;100.00
10658;BME280;5377;43.276;26.930;2023-03-26T04:50:26;98389.41;;;11.49;100.00
10658;BME280;5377;43.276;26.930;2023-03-26T04:52:54;98376.13;;;11.54;100.00
10658;BME280;5377;43.276;26.930;2023-03-26T04:55:24;98379.84;;;11.53;100.00
10658;BME280;5377;43.276;26.930;2023-03-26T04:57:55;98372.03;;;11.51;100.00
10658;BME280;5377;43.276;26.930;2023-03-26T05:00:24;98369.13;;;11.53;100.00
10658;BME280;5377;43.276;26.930;2023-03-26T05:02:52;98360.38;;;11.57;100.00
10658;BME280;5377;43.276;26.930;2023-03-26T05:05:23;98361.22;;;11.58;100.00
10658;BME280;5377;43.276;26.930;2023-03-26T05:07:51;98367.75;;;11.62;100.00
10658;BME280;5377;43.276;26.930;2023-03-26T05:10:18;98368.34;;;11.64;100.00
10658;BME280;5377;43.276;26.930;2023-03-26T05:12:46;98353.88;;;11.65;100.00
10658;BME280;5377;43.276;26.930;2023-03-26T05:15:13;98351.44;;;11.64;100.00
10658;BME280;5377;43.276;26.930;2023-03-26T05:17:40;98360.28;;;11.64;100.00
10658;BME280;5377;43.276;26.930;2023-03-26T05:20:14;98303.97;;;11.34;100.00
10658;BME280;5377;43.276;26.930;2023-03-26T05:22:44;98351.31;;;11.70;100.00
10658;BME280;5377;43.276;26.930;2023-03-26T05:25:11;98353.88;;;11.65;100.00
10658;BME280;5377;43.276;26.930;2023-03-26T05:27:38;98350.97;;;11.67;100.00
10658;BME280;5377;43.276;26.930;2023-03-26T05:30:07;98344.31;;;11.69;100.00
10658;BME280;5377;43.276;26.930;2023-03-26T05:32:34;98337.31;;;11.68;100.00
10658;BME280;5377;43.276;26.930;2023-03-26T05:35:02;98332.66;;;11.64;100.00
10658;BME280;5377;43.276;26.930;2023-03-26T05:37:29;98313.19;;;11.68;100.00
10658;BME280;5377;43.276;26.930;2023-03-26T05:39:58;98320.53;;;11.73;100.00
10658;BME280;5377;43.276;26.930;2023-03-26T05:42:25;98301.19;;;11.71;100.00
10658;BME280;5377;43.276;26.930;2023-03-26T05:44:52;98307.66;;;11.81;100.00
10658;BME280;5377;43.276;26.930;2023-03-26T05:47:19;98302.88;;;11.83;100.00
10658;BME280;5377;43.276;26.930;2023-03-26T05:49:46;98318.28;;;11.88;100.00
10658;BME280;5377;43.276;26.930;2023-03-26T05:52:13;98329.25;;;11.86;100.00
10658;BME280;5377;43.276;26.930;2023-03-26T05:54:43;98333.69;;;11.81;100.00
10658;BME280;5377;43.276;26.930;2023-03-26T05:57:11;98313.25;;;11.80;100.00
10658;BME280;5377;43.276;26.930;2023-03-26T05:59:38;98332.06;;;11.92;100.00
10658;BME280;5377;43.276;26.930;2023-03-26T06:02:06;98330.75;;;11.82;100.00
10658;BME280;5377;43.276;26.930;2023-03-26T06:04:33;98336.72;;;11.96;100.00
10658;BME280;5377;43.276;26.930;2023-03-26T06:06:59;98352.47;;;11.93;100.00
10658;BME280;5377;43.276;26.930;2023-03-26T06:09:28;98340.44;;;11.83;100.00
10658;BME280;5377;43.276;26.930;2023-03-26T06:11:54;98342.09;;;11.84;100.00
10658;BME280;5377;43.276;26.930;2023-03-26T06:14:23;98368.31;;;11.82;100.00
10658;BME280;5377;43.276;26.930;2023-03-26T06:16:49;98342.34;;;11.76;100.00
10658;BME280;5377;43.276;26.930;2023-03-26T06:19:16;98344.75;;;11.84;100.00
10658;BME280;5377;43.276;26.930;2023-03-26T06:21:43;98371.13;;;11.88;100.00
10658;BME280;5377;43.276;26.930;2023-03-26T06:24:10;98370.56;;;11.97;100.00
10658;BME280;5377;43.276;26.930;2023-03-26T06:26:37;98368.22;;;12.01;100.00
10658;BME280;5377;43.276;26.930;2023-03-26T06:29:03;98368.13;;;11.96;100.00
10658;BME280;5377;43.276;26.930;2023-03-26T06:31:32;98359.38;;;11.70;100.00
10658;BME280;5377;43.276;26.930;2023-03-26T06:33:58;98378.59;;;11.85;100.00
10658;BME280;5377;43.276;26.930;2023-03-26T06:36:25;98388.75;;;11.95;100.00
10658;BME280;5377;43.276;26.930;2023-03-26T06:38:52;98307.81;;;11.68;100.00
10658;BME280;5377;43.276;26.930;2023-03-26T06:41:19;98382.38;;;12.08;100.00
10658;BME280;5377;43.276;26.930;2023-03-26T06:43:46;98382.59;;;12.06;100.00
10658;BME280;5377;43.276;26.930;2023-03-26T06:46:13;98396.38;;;12.10;100.00
10658;BME280;5377;43.276;26.930;2023-03-26T06:48:41;98372.56;;;12.02;100.00
10658;BME280;5377;43.276;26.930;2023-03-26T06:51:08;98378.63;;;12.09;100.00
10658;BME280;5377;43.276;26.930;2023-03-26T06:53:35;98372.66;;;11.95;100.00
10658;BME280;5377;43.276;26.930;2023-03-26T06:56:02;98369.38;;;11.93;100.00
10658;BME280;5377;43.276;26.930;2023-03-26T06:58:29;98373.59;;;11.89;100.00
10658;BME280;5377;43.276;26.930;2023-03-26T07:00:56;98354.72;;;11.77;100.00
10658;BME280;5377;43.276;26.930;2023-03-26T07:03:23;98373.47;;;11.84;100.00
10658;BME280;5377;43.276;26.930;2023-03-26T07:05:51;98377.91;;;11.72;100.00
10658;BME280;5377;43.276;26.930;2023-03-26T07:08:18;98355.75;;;11.65;100.00
10658;BME280;5377;43.276;26.930;2023-03-26T07:10:45;98375.88;;;11.55;100.00
10658;BME280;5377;43.276;26.930;2023-03-26T07:13:12;98371.72;;;11.60;100.00
10658;BME280;5377;43.276;26.930;2023-03-26T07:15:39;98374.97;;;11.62;100.00
10658;BME280;5377;43.276;26.930;2023-03-26T07:18:05;98364.38;;;11.67;100.00
10658;BME280;5377;43.276;26.930;2023-03-26T07:20:33;98370.69;;;11.72;100.00
10658;BME280;5377;43.276;26.930;2023-03-26T07:23:02;98348.34;;;11.78;100.00
10658;BME280;5377;43.276;26.930;2023-03-26T07:25:29;98350.13;;;11.84;100.00
10658;BME280;5377;43.276;26.930;2023-03-26T07:28:03;98379.88;;;11.83;100.00
10658;BME280;5377;43.276;26.930;2023-03-26T07:30:38;98348.13;;;11.80;100.00
10658;BME280;5377;43.276;26.930;2023-03-26T07:33:13;98357.00;;;11.80;100.00
10658;BME280;5377;43.276;26.930;2023-03-26T07:35:45;98365.78;;;11.88;100.00
10658;BME280;5377;43.276;26.930;2023-03-26T07:38:31;98346.97;;;11.88;100.00
10658;BME280;5377;43.276;26.930;2023-03-26T07:41:05;98342.78;;;11.92;100.00
10658;BME280;5377;43.276;26.930;2023-03-26T07:43:44;98349.56;;;11.94;100.00
10658;BME280;5377;43.276;26.930;2023-03-26T07:46:15;98322.72;;;11.94;100.00
10658;BME280;5377;43.276;26.930;2023-03-26T07:48:44;98337.06;;;12.00;100.00
10658;BME280;5377;43.276;26.930;2023-03-26T07:51:13;98352.06;;;12.19;100.00
10658;BME280;5377;43.276;26.930;2023-03-26T07:53:42;98366.41;;;12.25;100.00
10658;BME280;5377;43.276;26.930;2023-03-26T07:56:13;98344.47;;;12.28;100.00
10658;BME280;5377;43.276;26.930;2023-03-26T07:59:04;98358.81;;;12.33;100.00
10658;BME280;5377;43.276;26.930;2023-03-26T08:01:43;98356.97;;;12.22;100.00
10658;BME280;5377;43.276;26.930;2023-03-26T08:04:31;98366.88;;;12.45;100.00
10658;BME280;5377;43.276;26.930;2023-03-26T08:07:07;98369.25;;;12.53;100.00
10658;BME280;5377;43.276;26.930;2023-03-26T08:09:53;98361.50;;;12.68;100.00
10658;BME280;5377;43.276;26.930;2023-03-26T08:12:32;98373.94;;;13.09;99.44
10658;BME280;5377;43.276;26.930;2023-03-26T08:15:05;98375.09;;;13.13;97.35
10658;BME280;5377;43.276;26.930;2023-03-26T08:17:39;98369.97;;;13.81;93.46
10658;BME280;5377;43.276;26.930;2023-03-26T08:20:20;98379.94;;;14.59;88.49
10658;BME280;5377;43.276;26.930;2023-03-26T08:22:55;98367.06;;;15.70;81.13
10658;BME280;5377;43.276;26.930;2023-03-26T08:25:31;98375.09;;;15.43;75.96
10658;BME280;5377;43.276;26.930;2023-03-26T08:28:15;98370.63;;;14.88;77.00
10658;BME280;5377;43.276;26.930;2023-03-26T08:30:43;98386.13;;;14.43;78.79
10658;BME280;5377;43.276;26.930;2023-03-26T08:33:13;98368.66;;;14.28;80.08
10658;BME280;5377;43.276;26.930;2023-03-26T08:35:42;98379.91;;;14.25;81.05
10658;BME280;5377;43.276;26.930;2023-03-26T08:38:09;98364.47;;;14.38;81.58
10658;BME280;5377;43.276;26.930;2023-03-26T08:41:01;98405.31;;;14.29;80.63
10658;BME280;5377;43.276;26.930;2023-03-26T08:44:01;98388.03;;;14.97;78.30
10658;BME280;5377;43.276;26.930;2023-03-26T08:46:52;98382.06;;;16.15;72.01
10658;BME280;5377;43.276;26.930;2023-03-26T08:49:42;98389.84;;;16.38;67.41
10658;BME280;5377;43.276;26.930;2023-03-26T08:52:35;98370.22;;;16.90;64.76
10658;BME280;5377;43.276;26.930;2023-03-26T09:01:51;98362.47;;;17.87;61.44
10658;BME280;5377;43.276;26.930;2023-03-26T09:04:58;98366.63;;;17.32;61.75
10658;BME280;5377;43.276;26.930;2023-03-26T09:07:47;98366.16;;;17.55;59.98
10658;BME280;5377;43.276;26.930;2023-03-26T09:10:49;98380.78;;;17.59;59.07
10658;BME280;5377;43.276;26.930;2023-03-26T09:19:53;98383.38;;;18.57;55.14
10658;BME280;5377;43.276;26.930;2023-03-26T09:22:52;98377.16;;;18.67;53.61
10658;BME280;5377;43.276;26.930;2023-03-26T09:28:55;98370.81;;;19.12;50.95
10658;BME280;5377;43.276;26.930;2023-03-26T09:34:58;98373.72;;;19.90;48.82
10658;BME280;5377;43.276;26.930;2023-03-26T09:37:40;98378.06;;;20.31;47.71
10658;BME280;5377;43.276;26.930;2023-03-26T09:40:16;98371.19;;;20.38;47.05
10658;BME280;5377;43.276;26.930;2023-03-26T09:42:44;98358.41;;;20.39;46.86
10658;BME280;5377;43.276;26.930;2023-03-26T09:45:39;98354.47;;;21.56;45.82
10658;BME280;5377;43.276;26.930;2023-03-26T09:48:30;98352.91;;;21.68;44.75
10658;BME280;5377;43.276;26.930;2023-03-26T09:51:15;98353.97;;;20.82;46.05
10658;BME280;5377;43.276;26.930;2023-03-26T09:54:02;98368.56;;;20.28;46.65
10658;BME280;5377;43.276;26.930;2023-03-26T09:56:39;98359.66;;;20.57;46.97
10658;BME280;5377;43.276;26.930;2023-03-26T09:59:21;98361.72;;;20.65;45.17
10658;BME280;5377;43.276;26.930;2023-03-26T10:01:59;98359.34;;;20.58;44.93
10658;BME280;5377;43.276;26.930;2023-03-26T10:04:39;98352.63;;;20.50;44.97
10658;BME280;5377;43.276;26.930;2023-03-26T10:07:20;98346.59;;;21.06;45.47
10658;BME280;5377;43.276;26.930;2023-03-26T10:09:59;98327.47;;;21.11;43.78
10658;BME280;5377;43.276;26.930;2023-03-26T10:12:32;98351.72;;;20.60;45.10
10658;BME280;5377;43.276;26.930;2023-03-26T10:15:12;98349.97;;;20.98;43.61
10658;BME280;5377;43.276;26.930;2023-03-26T10:17:53;98341.84;;;21.17;43.24
10658;BME280;5377;43.276;26.930;2023-03-26T10:20:34;98348.59;;;20.72;43.75
10658;BME280;5377;43.276;26.930;2023-03-26T10:23:16;98344.63;;;20.88;42.40
10658;BME280;5377;43.276;26.930;2023-03-26T10:26:00;98326.25;;;21.65;41.71
10658;BME280;5377;43.276;26.930;2023-03-26T10:28:39;98338.34;;;21.97;40.48
10658;BME280;5377;43.276;26.930;2023-03-26T10:31:33;98344.66;;;21.73;40.09
10658;BME280;5377;43.276;26.930;2023-03-26T10:34:12;98326.31;;;22.49;39.35
10658;BME280;5377;43.276;26.930;2023-03-26T10:36:45;98329.03;;;22.95;37.90
10658;BME280;5377;43.276;26.930;2023-03-26T10:39:42;98327.47;;;23.44;36.82
10658;BME280;5377;43.276;26.930;2023-03-26T10:42:40;98320.13;;;23.81;36.57
10658;BME280;5377;43.276;26.930;2023-03-26T10:48:21;98314.03;;;24.42;33.92
10658;BME280;5377;43.276;26.930;2023-03-26T10:51:03;98312.69;;;23.45;35.79
10658;BME280;5377;43.276;26.930;2023-03-26T10:53:37;98314.41;;;23.55;35.59
10658;BME280;5377;43.276;26.930;2023-03-26T10:56:13;98305.81;;;22.79;36.16
10658;BME280;5377;43.276;26.930;2023-03-26T10:58:43;98317.44;;;22.57;36.62
10658;BME280;5377;43.276;26.930;2023-03-26T11:01:18;98325.50;;;21.78;37.56
10658;BME280;5377;43.276;26.930;2023-03-26T11:03:49;98305.25;;;22.03;37.14
10658;BME280;5377;43.276;26.930;2023-03-26T11:06:36;98325.38;;;21.51;37.34
10658;BME280;5377;43.276;26.930;2023-03-26T11:09:17;98337.97;;;20.12;38.76
10658;BME280;5377;43.276;26.930;2023-03-26T11:11:51;98340.84;;;19.43;40.10
10658;BME280;5377;43.276;26.930;2023-03-26T11:14:23;98329.25;;;19.22;41.19
10658;BME280;5377;43.276;26.930;2023-03-26T11:17:00;98348.38;;;18.81;42.46
10658;BME280;5377;43.276;26.930;2023-03-26T11:19:34;98343.28;;;18.39;42.84
10658;BME280;5377;43.276;26.930;2023-03-26T11:22:16;98329.44;;;18.10;43.53
10658;BME280;5377;43.276;26.930;2023-03-26T11:25:10;98343.78;;;17.85;44.02
10658;BME280;5377;43.276;26.930;2023-03-26T11:27:52;98331.31;;;19.45;41.21
10658;BME280;5377;43.276;26.930;2023-03-26T11:30:30;98317.84;;;20.47;38.24
10658;BME280;5377;43.276;26.930;2023-03-26T11:33:01;98319.41;;;20.53;36.79
10658;BME280;5377;43.276;26.930;2023-03-26T11:35:30;98314.53;;;21.84;34.92
10658;BME280;5377;43.276;26.930;2023-03-26T11:38:04;98303.88;;;22.52;33.48
10658;BME280;5377;43.276;26.930;2023-03-26T11:40:34;98316.84;;;22.74;32.56
10658;BME280;5377;43.276;26.930;2023-03-26T11:43:07;98278.56;;;23.07;32.06
10658;BME280;5377;43.276;26.930;2023-03-26T11:45:36;98294.09;;;23.20;32.46
10658;BME280;5377;43.276;26.930;2023-03-26T11:48:07;98300.50;;;22.28;33.55
10658;BME280;5377;43.276;26.930;2023-03-26T11:50:41;98299.25;;;22.01;34.09
10658;BME280;5377;43.276;26.930;2023-03-26T11:53:12;98294.66;;;22.48;34.99
10658;BME280;5377;43.276;26.930;2023-03-26T11:55:46;98307.97;;;22.22;34.69
10658;BME280;5377;43.276;26.930;2023-03-26T11:58:23;98303.03;;;22.38;35.63
10658;BME280;5377;43.276;26.930;2023-03-26T12:00:53;98296.47;;;22.06;35.31
10658;BME280;5377;43.276;26.930;2023-03-26T12:03:20;98291.31;;;22.97;34.02
10658;BME280;5377;43.276;26.930;2023-03-26T12:05:49;98272.81;;;23.44;31.80
10658;BME280;5377;43.276;26.930;2023-03-26T12:08:22;98289.66;;;24.32;30.95
10658;BME280;5377;43.276;26.930;2023-03-26T12:10:59;98285.28;;;24.09;30.87
10658;BME280;5377;43.276;26.930;2023-03-26T12:13:32;98288.78;;;24.01;31.32
10658;BME280;5377;43.276;26.930;2023-03-26T12:16:05;98289.78;;;22.31;32.14
10658;BME280;5377;43.276;26.930;2023-03-26T12:18:33;98304.38;;;21.52;33.37
10658;BME280;5377;43.276;26.930;2023-03-26T12:21:05;98304.25;;;20.42;34.80
10658;BME280;5377;43.276;26.930;2023-03-26T12:23:37;98295.09;;;21.10;35.22
10658;BME280;5377;43.276;26.930;2023-03-26T12:26:14;98279.78;;;21.14;34.42
10658;BME280;5377;43.276;26.930;2023-03-26T12:28:46;98280.66;;;21.09;33.88
10658;BME280;5377;43.276;26.930;2023-03-26T12:31:14;98284.03;;;21.01;34.59
10658;BME280;5377;43.276;26.930;2023-03-26T12:33:44;98281.25;;;20.59;35.75
10658;BME280;5377;43.276;26.930;2023-03-26T12:36:30;98269.47;;;21.54;34.93
10658;BME280;5377;43.276;26.930;2023-03-26T12:38:59;98273.31;;;22.23;32.44
10658;BME280;5377;43.276;26.930;2023-03-26T12:41:33;98264.09;;;21.67;33.44
10658;BME280;5377;43.276;26.930;2023-03-26T12:44:20;98266.00;;;21.48;34.20
10658;BME280;5377;43.276;26.930;2023-03-26T12:46:49;98250.16;;;21.69;32.23
10658;BME280;5377;43.276;26.930;2023-03-26T12:49:19;98249.66;;;21.67;31.67
10658;BME280;5377;43.276;26.930;2023-03-26T12:51:49;98253.06;;;21.16;32.18
10658;BME280;5377;43.276;26.930;2023-03-26T12:54:31;98253.56;;;20.99;32.24
10658;BME280;5377;43.276;26.930;2023-03-26T12:57:10;98249.06;;;22.02;31.69
10658;BME280;5377;43.276;26.930;2023-03-26T13:00:03;98244.00;;;23.38;29.98
10658;BME280;5377;43.276;26.930;2023-03-26T13:02:53;98237.97;;;24.08;29.96
10658;BME280;5377;43.276;26.930;2023-03-26T13:05:36;98228.91;;;24.61;28.91
10658;BME280;5377;43.276;26.930;2023-03-26T13:08:22;98226.25;;;24.78;27.78
10658;BME280;5377;43.276;26.930;2023-03-26T13:11:02;98222.03;;;25.46;26.54
10658;BME280;5377;43.276;26.930;2023-03-26T13:13:56;98218.16;;;25.47;25.71
10658;BME280;5377;43.276;26.930;2023-03-26T13:16:33;98217.50;;;25.94;25.61
10658;BME280;5377;43.276;26.930;2023-03-26T13:19:04;98209.25;;;26.11;25.52
10658;BME280;5377;43.276;26.930;2023-03-26T13:21:39;98218.94;;;25.31;26.30
10658;BME280;5377;43.276;26.930;2023-03-26T13:24:15;98220.50;;;24.49;26.78
10658;BME280;5377;43.276;26.930;2023-03-26T13:26:56;98219.09;;;25.00;27.00
10658;BME280;5377;43.276;26.930;2023-03-26T13:29:34;98222.22;;;24.36;nan
10658;BME280;5377;43.276;26.930;2023-03-26T13:32:11;98212.94;;;24.54;27.47
10658;BME280;5377;43.276;26.930;2023-03-26T13:34:52;98201.84;;;24.99;27.05
10658;BME280;5377;43.276;26.930;2023-03-26T13:37:24;98200.28;;;25.67;26.84
10658;BME280;5377;43.276;26.930;2023-03-26T13:40:00;98203.00;;;25.50;26.88
10658;BME280;5377;43.276;26.930;2023-03-26T13:42:41;98204.19;;;26.22;25.45
10658;BME280;5377;43.276;26.930;2023-03-26T13:45:25;98202.50;;;26.55;24.12
10658;BME280;5377;43.276;26.930;2023-03-26T13:47:55;98210.69;;;26.64;23.98